CYRJ

Roberval Airport

Code ICAO CYRJ
Code IATA YRJ
Nom Roberval Airport
Emplacement Roberval, Quebec, CA
Élévation 586 pieds / 178.6 mètres
Latitude 48.52000000
Longitude -72.26583333
METAR CYRJ 040900Z 25009KT 40SM FEW070 08/06 A3001 RMK AC1 AC TR SLP170
Informations extras Afficher NOTAMS
Afficher cartes
Piste Longueur Largeur Surface Élévation
16 5000 ft 150 ft ASP 586 ft
34 5000 ft 150 ft ASP 560 ft